Johnstone Strait: Past 24 Hour Conditions

 

Halibut Bank - 46146

10:00 PM PDT 17 October 2017Buoy position: 49.34N 123.72W
Disclaimer

This table is a summary of hourly weather conditions for the past 24 hours.
Please note that these observations might not always be representative of weather conditions over their associated marine area.

Date / Time
(PDT)
Wind(knots) Wave height(m) Wave period(s) Pressure(kPa) Air tempC) Water tempC)
17 October 2017
22:00 ESE 10 gust 14 0.1 3.0 101.8 11 12
21:00 E 6 gust 6 0.2 3.0 101.8 11 12
20:00 WNW 4 gust 4 0.2 3.0 101.9 11 12
19:00 NW 4 gust 4 0.2 3.0 101.9 12 12
18:00 W 6 gust 6 0.3 3.0 101.9 12 12
17:00 W 8 gust 10 0.3 3.0 101.9 11 12
16:00 W 8 gust 10 0.4 4.0 101.8 12 12
15:00 W 10 gust 12 0.5 4.0 101.8 12 12
14:00 NW 14 gust 16 0.5 4.0 101.6 12 12
13:00 WNW 14 gust 16 0.6 4.0 101.5 12 12
12:00 NW 14 gust 16 0.8 4.0 101.4 12 11
11:00 WNW 19 gust 23 1.0 4.0 101.3 12 11
10:00 WNW 18 gust 23 1.3 4.0 101.1 11 11
9:00 NW 25 gust 31 1.0 5.0 100.8 11 11
8:00 W 14 gust 23 1.2 5.0 100.7 12 11
7:00 SSE 14 gust 19 1.6 5.0 100.6 12 11
6:00 ESE 21 gust 27 1.4 5.0 100.4 12 11
5:00 ESE 25 gust 29 1.2 5.0 100.5 12 11
4:00 ESE 21 gust 25 1.2 4.0 100.7 12 11
3:00 ESE 23 gust 27 1.1 4.0 100.9 12 11
2:00 ESE 21 gust 27 1.0 4.0 101.0 12 11
1:00 ESE 21 gust 25 1.0 4.0 101.2 12 11
0:00 ESE 21 gust 25 0.9 4.0 101.3 12 11
16 October 2017
23:00 ESE 21 gust 25 0.9 4.0 101.4 12 11
22:00 ESE 23 gust 27 0.9 4.0 101.5 12 11

Zoom-in to make a selection

Map of Pacific - Georgia Basin marine weather areas Tsawwassen Ferry Terminal Sentry Shoal - 46131 Halibut Bank - 46146 La Perouse Bank - 46206 Discovery Island Esquimalt Harbour Kelp Reefs Malahat Race Rocks Lightstation Saturna Island Sheringham Point University of Victoria Victoria Gonzales Victoria Int'l Airport Ballenas Islands Campbell River Airport Comox Airport Entrance Island Fanny Island Nanaimo Airport Sisters Islets Estevan Point Tofino Airport Grief Point Powell River Airport Sechelt Point Atkinson Sand Heads Lightstation Vancouver Harbour Vancouver Int'l Airport West Vancouver Port Alberni Howe Sound - Pam Rocks Squamish Airport
Legend:
buoy Buoy
land station Land Station

Pacific - Georgia Basin Area

Another Region

What we are doing

Date modified: